Time;durP1;ratioP1;P1;durP2;ratioP2;P2;SDS_P1;SDS_P2;PMS_P1;PMS_P2;Temp;Humidity;BMP_temperature;BMP_pressure;BME280_temperature;BME280_humidity;BME280_pressure;Samples;Min_cycle;Max_cycle;Signal;HPM_P1;HPM_P2
2023/12/01 00:00:00;;;;;;;14.95;9.32;;;23.60;99.90;;;;;;4983077;28;20034;-61
2023/12/01 00:02:26;;;;;;;15.93;9.40;;;23.60;99.90;;;;;;4973857;28;20046;-62
2023/12/01 00:04:52;;;;;;;17.35;9.63;;;23.60;99.90;;;;;;4982409;28;20065;-60
2023/12/01 00:07:18;;;;;;;13.40;8.88;;;23.60;99.90;;;;;;4989744;28;20034;-60
2023/12/01 00:09:44;;;;;;;16.38;9.57;;;23.60;99.90;;;;;;4990095;28;20024;-61
2023/12/01 00:12:10;;;;;;;14.65;10.00;;;23.60;99.90;;;;;;4985617;28;20022;-61
2023/12/01 00:14:36;;;;;;;12.82;9.68;;;23.60;99.90;;;;;;4987604;28;20019;-58
2023/12/01 00:17:01;;;;;;;16.83;9.40;;;23.60;99.90;;;;;;4983321;28;20033;-59
2023/12/01 00:19:27;;;;;;;13.98;9.40;;;23.60;99.90;;;;;;4983811;28;20873;-58
2023/12/01 00:21:53;;;;;;;15.18;9.13;;;23.60;99.90;;;;;;4981734;28;20097;-61
2023/12/01 00:24:19;;;;;;;14.60;8.88;;;23.60;99.90;;;;;;4978364;28;20126;-59
2023/12/01 00:26:45;;;;;;;14.20;9.27;;;23.60;99.90;;;;;;4981133;28;20042;-58
2023/12/01 00:29:11;;;;;;;12.77;9.13;;;23.60;99.90;;;;;;4982087;28;20050;-61
2023/12/01 00:31:37;;;;;;;17.30;8.73;;;23.60;99.90;;;;;;4974181;28;20019;-60
2023/12/01 00:34:03;;;;;;;14.57;8.93;;;23.50;99.90;;;;;;4975173;28;20429;-63
2023/12/01 00:36:29;;;;;;;11.13;7.75;;;23.50;99.90;;;;;;4990052;28;20029;-59
2023/12/01 00:38:55;;;;;;;12.23;8.25;;;23.50;99.90;;;;;;4984668;28;20030;-59
2023/12/01 00:41:21;;;;;;;13.35;8.40;;;23.50;99.90;;;;;;4990612;28;20049;-61
2023/12/01 00:43:47;;;;;;;16.23;8.50;;;23.50;99.90;;;;;;4989002;28;20538;-63
2023/12/01 00:46:13;;;;;;;11.88;7.72;;;23.50;99.90;;;;;;4990423;28;20019;-60
2023/12/01 00:48:38;;;;;;;9.80;7.50;;;23.50;99.90;;;;;;4992459;28;20093;-60
2023/12/01 00:51:05;;;;;;;12.95;8.65;;;23.50;99.90;;;;;;4992171;28;20030;-60
2023/12/01 00:53:30;;;;;;;12.40;8.25;;;23.50;99.90;;;;;;4991704;28;20034;-60
2023/12/01 00:55:56;;;;;;;11.70;7.35;;;23.50;99.90;;;;;;4988813;28;20435;-60
2023/12/01 00:58:22;;;;;;;11.85;6.85;;;23.50;99.90;;;;;;4972514;28;20101;-60
2023/12/01 01:00:48;;;;;;;13.82;8.25;;;23.50;99.90;;;;;;4974242;28;20037;-60
2023/12/01 01:03:14;;;;;;;10.23;6.97;;;23.50;99.90;;;;;;4975557;28;20033;-59
2023/12/01 01:05:40;;;;;;;12.45;7.30;;;23.50;99.90;;;;;;4976057;28;20058;-59
2023/12/01 01:08:05;;;;;;;9.80;6.88;;;23.40;99.90;;;;;;4977744;28;20085;-60
2023/12/01 01:10:31;;;;;;;10.70;6.68;;;23.40;99.90;;;;;;4975316;28;20073;-59
2023/12/01 01:12:57;;;;;;;9.00;6.85;;;23.50;99.90;;;;;;4974590;28;20026;-60
2023/12/01 01:15:23;;;;;;;12.90;6.57;;;23.50;99.90;;;;;;4975881;28;20023;-58
2023/12/01 01:17:49;;;;;;;10.73;7.18;;;23.50;99.90;;;;;;4989536;28;20027;-63
2023/12/01 01:20:15;;;;;;;10.05;6.55;;;23.50;99.90;;;;;;4995719;28;20029;-61
2023/12/01 01:22:40;;;;;;;13.35;6.65;;;23.50;99.90;;;;;;4984359;28;20019;-64
2023/12/01 01:25:07;;;;;;;12.85;6.78;;;23.40;99.90;;;;;;4987078;28;20062;-61
2023/12/01 01:27:33;;;;;;;11.88;6.95;;;23.40;99.90;;;;;;4986680;28;20046;-62
2023/12/01 01:29:59;;;;;;;10.35;6.47;;;23.40;99.90;;;;;;4995047;28;20026;-60
2023/12/01 01:32:24;;;;;;;10.40;6.47;;;23.40;99.90;;;;;;4985466;28;20162;-58
2023/12/01 01:34:50;;;;;;;8.88;5.97;;;23.40;99.90;;;;;;4993721;28;20476;-61
2023/12/01 01:37:16;;;;;;;11.23;6.50;;;23.40;99.90;;;;;;4975343;28;20019;-61
2023/12/01 01:39:42;;;;;;;10.88;6.22;;;23.40;99.90;;;;;;4974226;28;20510;-59
2023/12/01 01:42:08;;;;;;;8.32;5.75;;;23.40;99.90;;;;;;4975167;28;20069;-58
2023/12/01 01:44:35;;;;;;;9.02;5.78;;;23.40;99.90;;;;;;4975093;28;20488;-59
2023/12/01 01:47:01;;;;;;;9.37;5.40;;;23.40;99.90;;;;;;4975287;28;20121;-58
2023/12/01 01:49:27;;;;;;;9.20;5.72;;;23.40;99.90;;;;;;4991114;28;20680;-59
2023/12/01 01:51:54;;;;;;;10.60;6.20;;;23.40;99.90;;;;;;4975316;28;20027;-63
2023/12/01 01:54:25;;;;;;;12.27;6.07;;;23.40;99.90;;;;;;4974585;28;20031;-61
2023/12/01 01:56:55;;;;;;;8.18;5.30;;;23.40;99.90;;;;;;4974961;28;20074;-59
2023/12/01 01:59:22;;;;;;;12.90;5.95;;;23.40;99.90;;;;;;4984740;28;20039;-58
2023/12/01 02:01:48;;;;;;;8.52;5.80;;;23.40;99.90;;;;;;4978325;28;20030;-59
2023/12/01 02:04:15;;;;;;;12.15;5.72;;;23.40;99.90;;;;;;4994481;28;20041;-59
2023/12/01 02:06:41;;;;;;;8.27;5.10;;;23.40;99.90;;;;;;4994549;28;20046;-59
2023/12/01 02:09:07;;;;;;;9.50;5.30;;;23.40;99.90;;;;;;4994388;28;20034;-61
2023/12/01 02:11:35;;;;;;;11.20;5.43;;;23.40;99.90;;;;;;4994433;28;20023;-61
2023/12/01 02:14:02;;;;;;;11.55;5.93;;;23.40;99.90;;;;;;4994797;28;20053;-60
2023/12/01 02:16:28;;;;;;;9.02;4.63;;;23.30;99.90;;;;;;4993763;28;20019;-62
2023/12/01 02:18:54;;;;;;;8.10;5.10;;;23.40;99.90;;;;;;4994763;28;20414;-61
2023/12/01 02:21:26;;;;;;;8.68;5.13;;;23.30;99.90;;;;;;4994125;28;20467;-61
2023/12/01 02:23:53;;;;;;;7.93;4.50;;;23.40;99.90;;;;;;4993921;28;20391;-63
2023/12/01 02:26:19;;;;;;;11.25;4.88;;;23.30;99.90;;;;;;4993940;28;20019;-62
2023/12/01 02:28:46;;;;;;;9.73;4.78;;;23.40;99.90;;;;;;4994179;28;20045;-61
2023/12/01 02:31:12;;;;;;;11.95;5.65;;;23.30;99.90;;;;;;4993274;28;20029;-63
2023/12/01 02:33:38;;;;;;;8.52;4.90;;;23.30;99.90;;;;;;4994135;28;20030;-62
2023/12/01 02:36:06;;;;;;;10.70;5.13;;;23.30;99.90;;;;;;4994141;28;20018;-62
2023/12/01 02:38:33;;;;;;;9.60;4.85;;;23.30;99.90;;;;;;4993492;28;20034;-62
2023/12/01 02:40:59;;;;;;;10.15;4.85;;;23.30;99.90;;;;;;4993636;28;20026;-64
2023/12/01 02:43:24;;;;;;;9.60;5.38;;;23.40;99.90;;;;;;4993929;28;20034;-62
2023/12/01 02:45:50;;;;;;;9.13;5.43;;;23.30;99.90;;;;;;4993260;28;20082;-62
2023/12/01 02:48:16;;;;;;;13.15;4.28;;;23.30;99.90;;;;;;4993721;28;20554;-63
2023/12/01 02:50:43;;;;;;;6.72;4.47;;;23.30;99.90;;;;;;4984391;28;20050;-61
2023/12/01 02:53:09;;;;;;;8.63;5.03;;;23.30;99.90;;;;;;4976284;28;20376;-62
2023/12/01 02:55:34;;;;;;;8.13;4.85;;;23.30;99.90;;;;;;4980176;28;20030;-60
2023/12/01 02:58:01;;;;;;;7.45;4.55;;;23.30;99.90;;;;;;4993599;28;20077;-60
2023/12/01 03:00:27;;;;;;;9.90;4.35;;;23.30;99.90;;;;;;4993954;28;20026;-60
2023/12/01 03:02:52;;;;;;;9.93;4.90;;;23.30;99.90;;;;;;5005497;28;20487;-59
2023/12/01 03:05:19;;;;;;;9.43;4.88;;;23.30;99.90;;;;;;4968788;28;20035;-60
2023/12/01 03:07:46;;;;;;;8.77;4.40;;;23.30;99.90;;;;;;4972974;28;20066;-60
2023/12/01 03:10:12;;;;;;;9.63;4.25;;;23.30;99.90;;;;;;4973303;28;20376;-60
2023/12/01 03:12:41;;;;;;;9.57;4.63;;;23.30;99.90;;;;;;4973217;28;20495;-59
2023/12/01 03:15:10;;;;;;;6.05;4.15;;;23.30;99.90;;;;;;4978309;28;20072;-60
2023/12/01 03:17:37;;;;;;;18.35;4.72;;;23.20;99.90;;;;;;4992961;28;20061;-60
2023/12/01 03:20:10;;;;;;;8.68;4.93;;;23.20;99.90;;;;;;4992705;28;20022;-60
2023/12/01 03:22:41;;;;;;;7.60;3.70;;;23.20;99.90;;;;;;4992356;28;20503;-60
2023/12/01 03:25:11;;;;;;;7.25;4.15;;;23.20;99.90;;;;;;4993332;28;20470;-60
2023/12/01 03:27:45;;;;;;;8.20;4.15;;;23.20;99.90;;;;;;4992423;28;20062;-60
2023/12/01 03:30:16;;;;;;;8.43;3.83;;;23.20;99.90;;;;;;4992955;28;20018;-61
2023/12/01 03:32:46;;;;;;;8.40;3.85;;;23.20;99.90;;;;;;4990822;28;20030;-60
2023/12/01 03:35:20;;;;;;;8.30;3.85;;;23.20;99.90;;;;;;4991875;28;20019;-60
2023/12/01 03:37:47;;;;;;;5.43;3.17;;;23.10;99.90;;;;;;4991782;28;20478;-60
2023/12/01 03:40:13;;;;;;;7.90;4.75;;;23.10;99.90;;;;;;4991760;28;20028;-60
2023/12/01 03:42:45;;;;;;;6.80;4.22;;;23.10;99.90;;;;;;4992511;28;20033;-60
2023/12/01 03:45:12;;;;;;;8.23;3.90;;;23.10;99.90;;;;;;4992140;28;20041;-60
2023/12/01 03:47:39;;;;;;;6.80;3.83;;;23.10;99.90;;;;;;4991121;28;20038;-60
2023/12/01 03:50:05;;;;;;;9.13;4.20;;;23.10;99.90;;;;;;4991300;28;20030;-60
2023/12/01 03:52:31;;;;;;;8.40;4.15;;;23.10;99.90;;;;;;4992047;28;20042;-60
2023/12/01 03:55:01;;;;;;;8.15;3.58;;;23.10;99.90;;;;;;4992001;28;20027;-60
2023/12/01 03:57:27;;;;;;;9.95;4.25;;;23.10;99.90;;;;;;4992180;28;20029;-60
2023/12/01 03:59:54;;;;;;;8.18;4.13;;;23.10;99.90;;;;;;4989409;28;20023;-60
2023/12/01 04:02:23;;;;;;;8.35;3.75;;;23.10;99.90;;;;;;4991561;28;20042;-60
2023/12/01 04:04:50;;;;;;;7.97;3.78;;;23.10;99.90;;;;;;4990577;28;20027;-60
2023/12/01 04:07:15;;;;;;;9.70;4.05;;;23.00;99.90;;;;;;4989552;28;20038;-60
2023/12/01 04:09:41;;;;;;;8.30;4.13;;;23.00;99.90;;;;;;4992435;28;20149;-60
2023/12/01 04:12:07;;;;;;;7.05;3.65;;;23.00;99.90;;;;;;4992052;28;20030;-60
2023/12/01 04:14:33;;;;;;;7.28;4.30;;;23.00;99.90;;;;;;4990667;28;20077;-60
2023/12/01 04:17:08;;;;;;;9.10;4.03;;;23.00;99.90;;;;;;4990677;28;20030;-60
2023/12/01 04:19:36;;;;;;;11.05;4.25;;;23.00;99.90;;;;;;4991781;28;20053;-60
2023/12/01 04:22:04;;;;;;;10.38;4.28;;;23.00;99.90;;;;;;5006804;28;20474;-61
2023/12/01 04:24:34;;;;;;;7.65;3.17;;;22.90;99.90;;;;;;4991603;28;20018;-61
2023/12/01 04:27:01;;;;;;;6.25;4.10;;;22.90;99.90;;;;;;4990687;28;20093;-60
2023/12/01 04:29:29;;;;;;;9.10;3.45;;;22.90;99.90;;;;;;4991407;28;20093;-60
2023/12/01 04:31:56;;;;;;;5.35;3.72;;;22.90;99.90;;;;;;4990553;28;20027;-61
2023/12/01 04:34:21;;;;;;;12.35;4.10;;;22.90;99.90;;;;;;4989249;28;20026;-61
2023/12/01 04:36:52;;;;;;;6.75;3.05;;;22.90;99.90;;;;;;4995934;28;20026;-61
2023/12/01 04:39:18;;;;;;;6.35;3.20;;;22.90;99.90;;;;;;4995577;28;20438;-60
2023/12/01 04:41:44;;;;;;;9.18;3.97;;;22.90;99.90;;;;;;4993005;28;20026;-61
2023/12/01 04:44:10;;;;;;;5.38;3.53;;;22.80;99.90;;;;;;4994491;28;20024;-61
2023/12/01 04:46:36;;;;;;;7.00;4.03;;;22.80;99.90;;;;;;4995207;28;20030;-61
2023/12/01 04:49:02;;;;;;;7.32;3.70;;;22.80;99.90;;;;;;4995314;28;20033;-61
2023/12/01 04:51:28;;;;;;;10.98;3.67;;;22.80;99.90;;;;;;4993134;28;20014;-61
2023/12/01 04:53:54;;;;;;;6.90;3.60;;;22.80;99.90;;;;;;4995471;28;20077;-61
2023/12/01 04:56:20;;;;;;;6.53;3.90;;;22.80;99.90;;;;;;4995336;28;20098;-61
2023/12/01 04:58:46;;;;;;;8.00;3.75;;;22.80;99.90;;;;;;4994234;28;20026;-61
2023/12/01 05:01:12;;;;;;;8.02;3.95;;;22.80;99.90;;;;;;4995654;28;20085;-61
2023/12/01 05:03:37;;;;;;;7.25;3.55;;;22.80;99.90;;;;;;4995930;28;20038;-61
2023/12/01 05:06:03;;;;;;;6.95;4.03;;;22.80;99.90;;;;;;4995977;28;20022;-60
2023/12/01 05:08:29;;;;;;;6.82;3.35;;;22.70;99.90;;;;;;4995692;28;20034;-61
2023/12/01 05:10:56;;;;;;;4.82;2.97;;;22.80;99.90;;;;;;4995948;28;20025;-61
2023/12/01 05:13:22;;;;;;;8.50;3.28;;;22.70;99.90;;;;;;4995779;28;20022;-60
2023/12/01 05:15:47;;;;;;;6.45;2.95;;;22.80;99.90;;;;;;4995864;28;20030;-60
2023/12/01 05:18:13;;;;;;;6.82;4.07;;;22.70;99.90;;;;;;4996081;28;20383;-61
2023/12/01 05:20:40;;;;;;;5.88;3.05;;;22.70;99.90;;;;;;4995714;28;20026;-61
2023/12/01 05:23:10;;;;;;;7.35;3.50;;;22.70;99.90;;;;;;4995485;28;20654;-61
2023/12/01 05:25:38;;;;;;;8.05;3.40;;;22.70;99.90;;;;;;4995561;28;20395;-61
2023/12/01 05:28:10;;;;;;;7.30;3.05;;;22.70;99.90;;;;;;4995406;28;20030;-60
2023/12/01 05:30:40;;;;;;;8.38;3.30;;;22.70;99.90;;;;;;4995402;28;20081;-61
2023/12/01 05:33:06;;;;;;;5.20;3.00;;;22.70;99.90;;;;;;4995781;28;20030;-61
2023/12/01 05:35:35;;;;;;;8.27;3.40;;;22.70;99.90;;;;;;4995317;28;20025;-61
2023/12/01 05:38:04;;;;;;;7.60;3.75;;;22.70;99.90;;;;;;4995271;28;20022;-61
2023/12/01 05:40:34;;;;;;;6.55;3.42;;;22.70;99.90;;;;;;4995290;28;20024;-61
2023/12/01 05:43:00;;;;;;;5.85;3.30;;;22.60;99.90;;;;;;4993937;28;20073;-61
2023/12/01 05:45:28;;;;;;;7.95;2.83;;;22.70;99.90;;;;;;4994796;28;20030;-61
2023/12/01 05:47:55;;;;;;;12.15;3.63;;;22.70;99.90;;;;;;4995158;28;20038;-61
2023/12/01 05:50:26;;;;;;;5.10;3.35;;;22.70;99.90;;;;;;4995044;28;20471;-61
2023/12/01 05:52:54;;;;;;;6.03;2.80;;;22.60;99.90;;;;;;4994889;28;20081;-60
2023/12/01 05:55:28;;;;;;;4.43;3.00;;;22.70;99.90;;;;;;4994956;28;20037;-61
2023/12/01 05:57:59;;;;;;;5.18;3.33;;;22.70;99.90;;;;;;4994899;28;20059;-61
2023/12/01 06:00:29;;;;;;;8.32;3.33;;;22.60;99.90;;;;;;4994879;28;20025;-61
2023/12/01 06:02:58;;;;;;;4.90;2.90;;;22.60;99.90;;;;;;4994648;28;20046;-61
2023/12/01 06:05:24;;;;;;;7.05;3.10;;;22.60;99.90;;;;;;4994846;28;20081;-61
2023/12/01 06:07:55;;;;;;;4.63;2.92;;;22.60;99.90;;;;;;4994768;28;20395;-61
2023/12/01 06:10:23;;;;;;;4.47;2.95;;;22.60;99.90;;;;;;4994713;28;20110;-61
2023/12/01 06:12:49;;;;;;;6.00;3.55;;;22.60;99.90;;;;;;4994710;28;20101;-61
2023/12/01 06:15:17;;;;;;;5.60;3.10;;;22.60;99.90;;;;;;4994789;28;20046;-61
2023/12/01 06:17:45;;;;;;;5.72;2.85;;;22.60;99.90;;;;;;4994500;28;20033;-61
2023/12/01 06:20:18;;;;;;;7.18;2.92;;;22.60;99.90;;;;;;4994589;28;20077;-61
2023/12/01 06:22:49;;;;;;;6.20;3.03;;;22.60;99.90;;;;;;4994789;28;20105;-61
2023/12/01 06:25:17;;;;;;;5.93;3.38;;;22.60;99.90;;;;;;4994610;28;20106;-61
2023/12/01 06:27:44;;;;;;;4.43;2.92;;;22.60;99.90;;;;;;4994176;28;20368;-61
2023/12/01 06:30:12;;;;;;;9.43;3.75;;;22.60;99.90;;;;;;4994338;28;20023;-61
2023/12/01 06:32:41;;;;;;;8.10;2.92;;;22.60;99.90;;;;;;4994298;28;20031;-61
2023/12/01 06:35:15;;;;;;;8.43;3.25;;;22.60;99.90;;;;;;4994210;28;20038;-61
2023/12/01 06:37:42;;;;;;;4.80;2.90;;;22.60;99.90;;;;;;4994308;28;20498;-61
2023/12/01 06:40:12;;;;;;;5.77;3.10;;;22.60;99.90;;;;;;4994155;28;20026;-61
2023/12/01 06:42:45;;;;;;;4.85;2.58;;;22.60;99.90;;;;;;4994031;28;20322;-61
2023/12/01 06:45:22;;;;;;;7.22;3.53;;;22.60;99.90;;;;;;4993970;28;20030;-60
2023/12/01 06:47:49;;;;;;;7.60;3.75;;;22.60;99.90;;;;;;4994204;28;20145;-61
2023/12/01 06:50:17;;;;;;;4.18;2.60;;;22.60;99.90;;;;;;4994106;28;20367;-61
2023/12/01 06:52:45;;;;;;;10.88;3.67;;;22.60;99.90;;;;;;4994003;28;20105;-61
2023/12/01 06:55:11;;;;;;;5.85;3.38;;;22.60;99.90;;;;;;4993855;28;20105;-61
2023/12/01 06:57:44;;;;;;;12.90;3.75;;;22.60;99.90;;;;;;4993170;28;20097;-59
2023/12/01 07:00:32;;;;;;;6.13;3.28;;;22.60;99.90;;;;;;4993821;28;20018;-59
2023/12/01 07:02:59;;;;;;;4.15;2.92;;;22.60;99.90;;;;;;4993666;28;20394;-59
2023/12/01 07:05:26;;;;;;;8.60;2.97;;;22.60;99.90;;;;;;4993714;28;20029;-59
2023/12/01 07:07:56;;;;;;;5.25;2.70;;;22.60;99.90;;;;;;4993641;28;20056;-59
2023/12/01 07:10:23;;;;;;;5.63;3.30;;;22.60;99.90;;;;;;4993609;28;20022;-57
2023/12/01 07:12:50;;;;;;;6.05;3.58;;;22.60;99.90;;;;;;4993786;28;20033;-58
2023/12/01 07:15:20;;;;;;;6.40;3.22;;;22.60;99.90;;;;;;4993493;28;20114;-59
2023/12/01 07:17:50;;;;;;;7.28;3.25;;;22.60;99.90;;;;;;4993287;28;20045;-58
2023/12/01 07:20:18;;;;;;;7.13;3.38;;;22.60;99.90;;;;;;4993391;28;20454;-59
2023/12/01 07:22:44;;;;;;;;;;;22.60;99.90;;;;;;4993862;28;20076;-59
2023/12/01 07:25:10;;;;;;;6.57;2.90;;;22.60;99.90;;;;;;4993393;28;19906;-59
2023/12/01 07:27:40;;;;;;;9.95;3.22;;;22.60;99.90;;;;;;4993048;28;20034;-59
2023/12/01 07:30:06;;;;;;;8.88;3.50;;;22.60;99.90;;;;;;4993029;28;20109;-59
2023/12/01 07:32:33;;;;;;;6.07;3.22;;;22.60;99.90;;;;;;4993242;28;20030;-58
2023/12/01 07:34:59;;;;;;;7.93;3.10;;;22.60;99.90;;;;;;4993308;28;20022;-60
2023/12/01 07:37:24;;;;;;;8.60;3.53;;;22.60;99.90;;;;;;4993273;28;20022;-59
2023/12/01 07:39:50;;;;;;;5.47;3.22;;;22.60;99.90;;;;;;5008519;28;20018;-60
2023/12/01 07:42:17;;;;;;;7.65;3.60;;;22.60;99.90;;;;;;4993101;28;20026;-59
2023/12/01 07:44:43;;;;;;;7.20;3.00;;;22.60;99.90;;;;;;4992939;28;20030;-59
2023/12/01 07:47:11;;;;;;;8.93;3.05;;;22.60;99.90;;;;;;4992914;28;20031;-59
2023/12/01 07:49:38;;;;;;;9.55;3.22;;;22.60;99.90;;;;;;4992905;28;20554;-58
2023/12/01 07:52:06;;;;;;;12.23;3.03;;;22.60;99.90;;;;;;4993020;28;20502;-57
2023/12/01 07:54:33;;;;;;;7.70;2.80;;;22.60;99.90;;;;;;4992802;28;20018;-58
2023/12/01 07:56:59;;;;;;;7.88;3.22;;;22.60;99.90;;;;;;4993000;28;20018;-59
2023/12/01 07:59:25;;;;;;;9.80;3.78;;;22.60;99.90;;;;;;4992755;28;20113;-59
2023/12/01 08:01:51;;;;;;;8.13;2.67;;;22.60;99.90;;;;;;4992935;28;20133;-58
2023/12/01 08:04:17;;;;;;;9.45;2.97;;;22.60;99.90;;;;;;4992843;28;20033;-59
2023/12/01 08:06:42;;;;;;;8.57;3.42;;;22.60;99.90;;;;;;4992671;28;20064;-59
2023/12/01 08:09:09;;;;;;;8.68;3.22;;;22.60;99.90;;;;;;4995361;28;20547;-58
2023/12/01 08:11:34;;;;;;;9.63;3.17;;;22.60;99.90;;;;;;4999165;28;20061;-58
2023/12/01 08:14:03;;;;;;;8.07;3.50;;;22.60;99.90;;;;;;4999085;28;20050;-59
2023/12/01 08:16:29;;;;;;;8.20;3.33;;;22.60;99.90;;;;;;4999261;28;20030;-58
2023/12/01 08:18:58;;;;;;;9.05;3.03;;;22.60;99.90;;;;;;4999223;28;20034;-58
2023/12/01 08:21:24;;;;;;;5.30;2.92;;;22.60;99.90;;;;;;4999458;28;20032;-58
2023/12/01 08:23:50;;;;;;;11.25;3.50;;;22.60;99.90;;;;;;4999377;28;20390;-58
2023/12/01 08:26:15;;;;;;;6.82;3.00;;;22.60;99.90;;;;;;4999021;28;20101;-57
2023/12/01 08:28:41;;;;;;;6.45;2.85;;;22.60;99.90;;;;;;4999129;28;20404;-58
2023/12/01 08:31:07;;;;;;;8.88;4.03;;;22.60;99.90;;;;;;4999018;28;20366;-57
2023/12/01 08:33:35;;;;;;;5.90;2.85;;;22.60;99.90;;;;;;4999172;28;20031;-59
2023/12/01 08:36:01;;;;;;;4.90;2.75;;;22.60;99.90;;;;;;4999000;28;20065;-59
2023/12/01 08:38:27;;;;;;;7.95;2.60;;;22.60;99.90;;;;;;5014135;28;20121;-58
2023/12/01 08:40:53;;;;;;;7.22;2.88;;;22.60;99.90;;;;;;4999037;28;20506;-58
2023/12/01 08:43:19;;;;;;;7.80;3.03;;;22.60;99.90;;;;;;4998846;28;20038;-59
2023/12/01 08:45:44;;;;;;;5.63;2.72;;;22.60;99.90;;;;;;4998976;28;20061;-58
2023/12/01 08:48:10;;;;;;;10.35;3.30;;;22.60;99.90;;;;;;4998766;28;20510;-58
2023/12/01 08:50:36;;;;;;;7.68;2.85;;;22.60;99.90;;;;;;5013924;28;20085;-57
2023/12/01 08:53:02;;;;;;;7.78;2.90;;;22.60;99.90;;;;;;4998799;28;20022;-58
2023/12/01 08:55:28;;;;;;;7.50;3.05;;;22.60;99.90;;;;;;4998698;28;20041;-58
2023/12/01 08:57:53;;;;;;;7.45;3.40;;;22.60;99.90;;;;;;4999011;28;20490;-59
2023/12/01 09:00:20;;;;;;;4.78;2.63;;;22.60;99.90;;;;;;4998740;28;20489;-58
2023/12/01 09:02:50;;;;;;;16.08;3.42;;;22.60;99.90;;;;;;4998626;28;20418;-58
2023/12/01 09:05:17;;;;;;;10.32;3.97;;;22.70;99.90;;;;;;4998772;28;20502;-59
2023/12/01 09:07:45;;;;;;;11.38;2.95;;;22.70;99.90;;;;;;4998721;28;20127;-58
2023/12/01 09:10:11;;;;;;;5.95;2.45;;;22.70;99.90;;;;;;4998657;28;20027;-58
2023/12/01 09:12:36;;;;;;;7.57;3.28;;;22.70;99.90;;;;;;4998597;28;20493;-57
2023/12/01 09:15:02;;;;;;;10.00;2.95;;;22.70;99.90;;;;;;4998296;28;20092;-58
2023/12/01 09:17:28;;;;;;;12.02;3.33;;;22.70;99.90;;;;;;4998277;28;20378;-61
2023/12/01 09:19:54;;;;;;;9.82;3.22;;;22.70;99.90;;;;;;4998075;28;20073;-59
2023/12/01 09:22:20;;;;;;;7.63;2.17;;;22.70;99.90;;;;;;4994250;28;20062;-59
2023/12/01 09:24:46;;;;;;;9.27;2.67;;;22.70;99.90;;;;;;5009970;28;20033;-57
2023/12/01 09:27:12;;;;;;;7.88;3.35;;;22.70;99.90;;;;;;4993583;28;20502;-57
2023/12/01 09:29:37;;;;;;;7.55;3.13;;;22.70;99.90;;;;;;4994954;28;20027;-57
2023/12/01 09:32:04;;;;;;;9.63;2.50;;;22.70;99.90;;;;;;4994829;28;20027;-58
2023/12/01 09:34:30;;;;;;;8.02;2.78;;;22.70;99.90;;;;;;4994713;28;20121;-59
2023/12/01 09:36:56;;;;;;;5.38;3.05;;;22.70;99.90;;;;;;4994970;28;20106;-59
2023/12/01 09:39:22;;;;;;;4.93;2.40;;;22.80;99.90;;;;;;5009634;28;20033;-59
2023/12/01 09:41:51;;;;;;;4.93;2.45;;;22.70;99.90;;;;;;4994563;28;20023;-60
2023/12/01 09:44:17;;;;;;;5.72;2.65;;;22.70;99.90;;;;;;4994750;28;20031;-59
2023/12/01 09:46:43;;;;;;;5.63;3.25;;;22.80;99.90;;;;;;4994750;28;20375;-58
2023/12/01 09:49:10;;;;;;;4.70;2.50;;;22.70;99.90;;;;;;4994871;28;20030;-58
2023/12/01 09:51:36;;;;;;;4.05;2.30;;;22.70;99.90;;;;;;4995155;28;20022;-58
2023/12/01 09:54:03;;;;;;;4.32;1.95;;;22.80;99.90;;;;;;4995116;28;20043;-59
2023/12/01 09:56:30;;;;;;;5.70;2.70;;;22.80;99.90;;;;;;4995334;28;20014;-59
2023/12/01 09:58:56;;;;;;;5.72;3.10;;;22.80;99.90;;;;;;4995161;28;20089;-59
2023/12/01 10:01:23;;;;;;;8.37;3.77;;;22.90;99.90;;;;;;4994635;28;20041;-59
2023/12/01 10:03:49;;;;;;;5.20;2.50;;;23.00;99.90;;;;;;4994886;28;20268;-59
2023/12/01 10:06:15;;;;;;;9.35;3.30;;;23.00;99.90;;;;;;4994606;28;20574;-58
2023/12/01 10:08:41;;;;;;;4.97;2.47;;;23.00;99.90;;;;;;4993445;28;20422;-60
2023/12/01 10:11:22;;;;;;;7.70;3.20;;;23.00;99.90;;;;;;4994743;28;20027;-60
2023/12/01 10:13:49;;;;;;;8.52;3.63;;;23.10;99.90;;;;;;4994719;28;20514;-58
2023/12/01 10:16:16;;;;;;;;;;;23.10;99.90;;;;;;4995201;28;20041;-58
2023/12/01 10:19:01;;;;;;;5.93;2.45;;;23.10;99.90;;;;;;4995519;28;19917;-59
2023/12/01 10:21:49;;;;;;;7.07;2.80;;;23.10;99.90;;;;;;4994314;28;20504;-60
2023/12/01 10:24:14;;;;;;;;;;;23.20;99.90;;;;;;4994188;28;20085;-60
2023/12/01 10:26:41;;;;;;;6.00;2.60;;;23.20;99.90;;;;;;4993301;28;20282;-62
2023/12/01 10:29:44;;;;;;;3.05;1.92;;;23.20;99.90;;;;;;4991934;28;20066;-60
2023/12/01 10:32:13;;;;;;;6.68;3.38;;;23.10;99.90;;;;;;4991570;28;20418;-60
2023/12/01 10:34:40;;;;;;;9.68;2.63;;;23.20;99.90;;;;;;4990763;28;20052;-60
2023/12/01 10:37:07;;;;;;;5.07;2.65;;;23.20;99.90;;;;;;4991829;28;20025;-59
2023/12/01 10:39:33;;;;;;;8.18;2.58;;;23.10;99.90;;;;;;4992621;28;20022;-59
2023/12/01 10:41:59;;;;;;;9.05;2.95;;;23.10;99.90;;;;;;4993966;28;20113;-61
2023/12/01 10:44:26;;;;;;;6.78;2.47;;;23.10;99.90;;;;;;4993576;28;20030;-60
2023/12/01 10:46:55;;;;;;;5.85;3.03;;;23.10;99.90;;;;;;4993456;28;20041;-59
2023/12/01 10:49:22;;;;;;;4.32;2.22;;;23.10;99.90;;;;;;4993405;28;20038;-58
2023/12/01 10:51:55;;;;;;;11.50;2.60;;;23.10;99.90;;;;;;4993130;28;20076;-58
2023/12/01 10:54:24;;;;;;;5.30;2.42;;;23.10;99.90;;;;;;4992630;28;20026;-62
2023/12/01 10:57:15;;;;;;;3.65;2.40;;;23.00;99.90;;;;;;4992284;28;20488;-58
2023/12/01 10:59:48;;;;;;;6.88;2.53;;;23.10;99.90;;;;;;4992675;28;20070;-59
2023/12/01 11:02:14;;;;;;;9.00;2.80;;;23.00;99.90;;;;;;4991984;28;20042;-61
2023/12/01 11:04:46;;;;;;;5.43;3.10;;;23.00;99.90;;;;;;4982652;28;20022;-60
2023/12/01 11:07:30;;;;;;;5.57;2.95;;;23.00;99.90;;;;;;4993427;28;20038;-58
2023/12/01 11:10:02;;;;;;;4.90;2.58;;;23.00;99.90;;;;;;4990788;28;20443;-57
2023/12/01 11:12:40;;;;;;;5.53;2.78;;;23.00;99.90;;;;;;4992449;28;20022;-57
2023/12/01 11:15:31;;;;;;;6.95;3.58;;;23.00;99.90;;;;;;4990176;28;20038;-58
2023/12/01 11:17:57;;;;;;;5.93;2.92;;;22.90;99.90;;;;;;4989362;28;20086;-59
2023/12/01 11:20:33;;;;;;;8.77;3.33;;;22.90;99.90;;;;;;4993415;28;20030;-58
2023/12/01 11:23:23;;;;;;;7.75;3.20;;;22.90;99.90;;;;;;4991385;28;20430;-59
2023/12/01 11:25:56;;;;;;;9.93;3.38;;;22.90;99.90;;;;;;4991987;28;20027;-59
2023/12/01 11:31:42;;;;;;;10.98;3.42;;;22.90;99.90;;;;;;4992721;28;20033;-57
2023/12/01 11:34:04;;;;;;;8.38;3.67;;;22.90;99.90;;;;;;4992903;28;20090;-57
2023/12/01 11:36:37;;;;;;;6.40;3.35;;;22.90;99.90;;;;;;4993146;28;20028;-57
2023/12/01 11:41:54;;;;;;;;;;;22.90;99.90;;;;;;4993410;28;20498;-58
2023/12/01 11:44:43;;;;;;;9.57;3.88;;;22.90;99.90;;;;;;4992518;28;19905;-57
2023/12/01 11:47:12;;;;;;;8.35;4.68;;;22.90;99.90;;;;;;4992269;28;20085;-57
2023/12/01 11:49:40;;;;;;;8.75;4.53;;;22.90;99.90;;;;;;4992767;28;20030;-58
2023/12/01 11:52:10;;;;;;;8.32;4.75;;;22.90;99.90;;;;;;4992207;28;20114;-58
2023/12/01 11:54:37;;;;;;;6.20;3.30;;;22.90;99.90;;;;;;4991883;28;20112;-59
2023/12/01 11:57:10;;;;;;;6.28;3.50;;;22.90;99.90;;;;;;4990465;28;20026;-59
2023/12/01 11:59:37;;;;;;;4.85;3.10;;;22.90;99.90;;;;;;4991598;28;20034;-59
2023/12/01 12:02:03;;;;;;;8.77;3.28;;;22.90;99.90;;;;;;4990294;28;20065;-60
2023/12/01 12:04:29;;;;;;;8.40;3.50;;;22.80;99.90;;;;;;4992691;28;20032;-55
2023/12/01 12:07:00;;;;;;;5.28;3.13;;;22.90;99.90;;;;;;4991963;28;20430;-58
2023/12/01 12:09:34;;;;;;;8.07;3.22;;;22.90;99.90;;;;;;4992539;28;20506;-58
2023/12/01 12:12:03;;;;;;;7.35;4.13;;;22.90;99.90;;;;;;4991527;28;20042;-58
2023/12/01 12:14:30;;;;;;;8.15;3.72;;;22.90;99.90;;;;;;4992661;28;20030;-62
2023/12/01 12:16:57;;;;;;;10.35;3.80;;;22.90;99.90;;;;;;4992649;28;20491;-58
2023/12/01 12:19:23;;;;;;;9.60;3.35;;;22.90;99.90;;;;;;4987199;28;20106;-61
2023/12/01 12:21:49;;;;;;;9.75;3.92;;;22.90;99.90;;;;;;4973122;28;20178;-62
2023/12/01 12:24:16;;;;;;;11.38;3.35;;;22.90;99.90;;;;;;4973341;28;20038;-61
2023/12/01 12:26:42;;;;;;;8.40;3.38;;;22.90;99.90;;;;;;4973055;28;20026;-61
2023/12/01 12:29:08;;;;;;;8.50;4.05;;;22.90;99.90;;;;;;4973267;28;20034;-64
2023/12/01 12:31:36;;;;;;;7.95;3.53;;;22.90;99.90;;;;;;4977951;28;20034;-64
2023/12/01 12:34:07;;;;;;;8.15;3.83;;;22.90;99.90;;;;;;4974017;28;20027;-63
2023/12/01 12:36:35;;;;;;;10.35;3.80;;;22.90;99.90;;;;;;4990100;28;20471;-63
2023/12/01 12:39:04;;;;;;;9.45;4.30;;;22.90;99.90;;;;;;4992035;28;20026;-63
2023/12/01 12:41:36;;;;;;;10.00;3.65;;;22.90;99.90;;;;;;4989665;28;20086;-63
2023/12/01 12:44:13;;;;;;;9.70;4.20;;;22.90;99.90;;;;;;4991972;28;20116;-62
2023/12/01 12:46:38;;;;;;;7.03;3.35;;;22.90;99.90;;;;;;4990860;28;20379;-62
2023/12/01 12:49:09;;;;;;;11.80;4.10;;;22.90;99.90;;;;;;4990343;28;20042;-61
2023/12/01 12:51:35;;;;;;;14.73;4.38;;;22.90;99.90;;;;;;4992556;28;20026;-60
2023/12/01 12:54:02;;;;;;;7.47;4.00;;;22.90;99.90;;;;;;4992266;28;20041;-59